createdAt,value
2022-10-01T00:06:41.992Z,94447.48
2022-10-01T00:15:13.348Z,94456.76
2022-10-01T00:23:37.727Z,94460.98
2022-10-01T00:32:02.148Z,94478.01
2022-10-01T00:40:25.157Z,94483.15
2022-10-01T00:48:52.670Z,94478.19
2022-10-01T00:57:18.967Z,94501.29
2022-10-01T01:05:42.218Z,94509.42
2022-10-01T01:14:18.969Z,94509.73
2022-10-01T01:22:50.588Z,94503.37
2022-10-01T01:31:18.779Z,94484.76
2022-10-01T01:39:46.250Z,94478.48
2022-10-01T01:48:13.042Z,94470.60
2022-10-01T01:56:38.302Z,94452.55
2022-10-01T02:05:09.003Z,94446.10
2022-10-01T02:13:45.318Z,94465.95
2022-10-01T02:22:47.324Z,94473.77
2022-10-01T02:31:13.202Z,94449.83
2022-10-01T02:39:38.488Z,94444.31
2022-10-01T02:48:08.924Z,94464.45
2022-10-01T02:56:54.299Z,94479.98
2022-10-01T03:05:20.475Z,94487.90
2022-10-01T03:13:43.785Z,94494.31
2022-10-01T03:22:08.512Z,94465.62
2022-10-01T03:30:31.360Z,94440.13
2022-10-01T03:38:54.209Z,94455.27
2022-10-01T03:47:17.191Z,94469.14
2022-10-01T03:55:39.957Z,94480.44
2022-10-01T04:04:04.189Z,94467.60
2022-10-01T04:12:27.409Z,94443.52
2022-10-01T04:20:50.256Z,94443.31
2022-10-01T04:29:13.199Z,94459.84
2022-10-01T04:37:36.014Z,94476.70
2022-10-01T04:45:58.977Z,94436.02
2022-10-01T04:54:21.872Z,94379.85
2022-10-01T05:02:52.007Z,94344.81
2022-10-01T05:11:14.735Z,94331.45
2022-10-01T05:19:37.496Z,94346.17
2022-10-01T05:28:05.325Z,94344.52
2022-10-01T05:36:29.735Z,94339.35
2022-10-01T05:44:53.542Z,94366.83
2022-10-01T05:53:16.307Z,94388.10
2022-10-01T06:01:39.292Z,94412.88
2022-10-01T06:10:02.144Z,94445.86
2022-10-01T06:18:24.924Z,94465.55
2022-10-01T06:26:48.626Z,94480.90
2022-10-01T06:35:11.423Z,94510.39
2022-10-01T06:43:34.278Z,94506.50
2022-10-01T06:52:15.845Z,94521.18
2022-10-01T07:00:40.861Z,94567.02
2022-10-01T07:09:07.228Z,94578.40
2022-10-01T07:17:30.076Z,94592.16
2022-10-01T07:25:52.909Z,94637.45
2022-10-01T07:34:16.046Z,94662.41
2022-10-01T07:42:38.820Z,94635.91
2022-10-01T07:51:01.653Z,94632.16
2022-10-01T07:59:27.194Z,94639.17
2022-10-01T08:07:50.790Z,94670.98
2022-10-01T08:16:13.982Z,94696.68
2022-10-01T08:24:36.939Z,94689.44
2022-10-01T08:33:01.646Z,94749.27
2022-10-01T08:41:40.985Z,94844.33
2022-10-01T08:50:17.011Z,94942.15
2022-10-01T08:58:45.511Z,95017.42
2022-10-01T09:07:57.388Z,95056.61
2022-10-01T09:16:41.150Z,95060.11
2022-10-01T09:25:25.217Z,95064.10
2022-10-01T09:34:12.740Z,95100.83
2022-10-01T09:42:35.580Z,95130.46
2022-10-01T09:51:03.740Z,95150.36
2022-10-01T09:59:49.664Z,95172.77
2022-10-01T10:08:24.116Z,95251.30
2022-10-01T10:16:48.854Z,95301.36
2022-10-01T10:25:20.019Z,95322.59
2022-10-01T10:33:47.413Z,95323.47
2022-10-01T10:42:15.349Z,95366.41
2022-10-01T10:50:41.186Z,95433.08
2022-10-01T10:59:08.467Z,95488.58
2022-10-01T11:07:32.200Z,95520.69
2022-10-01T11:16:20.520Z,95545.29
2022-10-01T11:24:51.661Z,95584.27
2022-10-01T11:33:30.527Z,95611.88
2022-10-01T11:42:00.585Z,95651.91
2022-10-01T11:50:38.506Z,95626.66
2022-10-01T11:59:13.940Z,95545.25
2022-10-01T12:07:54.256Z,95540.96
2022-10-01T12:16:54.222Z,95576.08
2022-10-01T12:25:18.948Z,95636.38
2022-10-01T12:33:51.218Z,95706.84
2022-10-01T12:42:20.028Z,95776.52
2022-10-01T12:50:53.055Z,95832.16
2022-10-01T12:59:35.040Z,95815.88
2022-10-01T13:08:33.657Z,95796.13
2022-10-01T13:17:06.371Z,95814.22
2022-10-01T13:25:40.354Z,95816.19
2022-10-01T13:34:03.683Z,95829.12
2022-10-01T13:43:23.384Z,95810.48
2022-10-01T13:51:46.709Z,95812.39
2022-10-01T14:00:12.484Z,95840.11
2022-10-01T14:08:44.118Z,95857.10
2022-10-01T14:17:09.630Z,95792.70
2022-10-01T14:25:39.597Z,95720.23
2022-10-01T14:34:36.961Z,95660.17
2022-10-01T14:43:01.712Z,95586.55
2022-10-01T14:51:28.055Z,95558.36
2022-10-01T14:59:50.999Z,95541.00
2022-10-01T15:08:21.481Z,95543.61
2022-10-01T15:16:44.879Z,95531.58
2022-10-01T15:25:11.023Z,95540.43
2022-10-01T15:33:42.548Z,95550.45
2022-10-01T15:42:31.554Z,95541.15
2022-10-01T15:51:04.621Z,95513.20
2022-10-01T15:59:27.653Z,95466.59
2022-10-01T16:07:58.314Z,95435.73
2022-10-01T16:16:22.883Z,95387.21
2022-10-01T16:24:48.351Z,95350.64
2022-10-01T16:33:11.208Z,95334.42
2022-10-01T16:41:35.269Z,95360.17
2022-10-01T16:49:58.331Z,95385.19
2022-10-01T16:58:21.871Z,95377.52
2022-10-01T17:29:01.315Z,95357.30
2022-10-01T17:37:24.608Z,95278.77
2022-10-01T17:45:59.634Z,95246.89
2022-10-01T17:54:23.478Z,95222.38
2022-10-01T18:02:46.737Z,95180.14
2022-10-01T18:11:12.206Z,95132.65
2022-10-01T18:28:17.888Z,95118.04
2022-10-01T18:37:04.247Z,95132.84
2022-10-01T18:45:41.712Z,95153.36
2022-10-01T18:54:18.714Z,95152.83
2022-10-01T19:02:53.439Z,95178.15
2022-10-01T19:11:31.510Z,95219.88
2022-10-01T19:20:12.223Z,95211.30
2022-10-01T19:29:01.008Z,95195.55
2022-10-01T19:37:41.601Z,95168.27
2022-10-01T19:46:16.699Z,95148.36
2022-10-01T19:54:52.599Z,95173.39
2022-10-01T20:03:40.600Z,95164.19
2022-10-01T20:12:21.896Z,95156.55
2022-10-01T20:21:14.231Z,95123.94
2022-10-01T20:29:59.161Z,95076.02
2022-10-01T20:38:42.375Z,95059.77
2022-10-01T20:47:12.674Z,95029.95
2022-10-01T20:55:41.424Z,95005.01
2022-10-01T21:04:18.568Z,94990.35
2022-10-01T21:12:53.164Z,94974.51
2022-10-01T21:21:35.416Z,94965.52
2022-10-01T21:30:07.587Z,94915.19
2022-10-01T21:38:40.480Z,94908.16
2022-10-01T21:47:15.446Z,94901.42
2022-10-01T21:56:00.337Z,94880.20
2022-10-01T22:04:39.902Z,94897.26
2022-10-01T22:13:15.442Z,94910.95
2022-10-01T22:21:46.136Z,94922.95
2022-10-01T22:30:16.755Z,94951.48
2022-10-01T22:39:13.604Z,94955.92
2022-10-01T22:47:58.682Z,94921.34
2022-10-01T22:56:41.974Z,94873.05
2022-10-01T23:05:43.943Z,94808.01
2022-10-01T23:14:44.653Z,94762.46
2022-10-01T23:23:23.961Z,94747.08
2022-10-01T23:31:52.844Z,94710.90
2022-10-01T23:40:21.816Z,94669.30
2022-10-01T23:48:54.835Z,94633.80
2022-10-01T23:57:32.220Z,94604.62
